createdAt,value
2023-05-15T19:30:12.953Z,11.80
2023-05-15T19:32:49.118Z,10.50
2023-05-15T19:35:20.749Z,11.20
2023-05-15T19:37:52.844Z,14.70
2023-05-15T19:40:24.864Z,17.00
2023-05-15T19:42:56.864Z,27.10
2023-05-15T19:45:30.596Z,26.50
2023-05-15T19:48:03.692Z,45.70
2023-05-15T20:01:18.506Z,24.60
2023-05-15T20:03:50.163Z,11.00
2023-05-15T20:06:22.138Z,12.30
2023-05-15T20:08:53.801Z,15.80
2023-05-15T20:11:26.026Z,11.70
2023-05-15T20:13:57.653Z,22.60
2023-05-15T20:16:29.275Z,25.10
2023-05-15T20:19:01.045Z,23.10
2023-05-15T20:21:32.856Z,18.40
2023-05-15T20:24:04.765Z,43.30
2023-05-15T20:26:36.681Z,17.90
2023-05-15T20:29:08.306Z,22.80
2023-05-15T20:31:40.665Z,13.60
2023-05-15T20:34:15.304Z,13.60
2023-05-15T20:36:47.764Z,15.10
2023-05-15T20:39:20.163Z,17.80
2023-05-15T20:41:52.143Z,30.90
2023-05-15T20:44:23.901Z,24.30
2023-05-15T20:46:55.854Z,27.20
2023-05-15T20:49:27.442Z,20.70
2023-05-15T20:52:00.536Z,30.30
2023-05-15T20:54:32.265Z,24.50
2023-05-15T20:57:05.141Z,25.70
2023-05-15T20:59:36.716Z,41.40
2023-05-15T21:02:08.424Z,39.80
2023-05-15T21:04:40.004Z,43.10
2023-05-15T21:07:11.885Z,51.70
2023-05-15T21:09:43.413Z,46.30
2023-05-15T21:12:15.278Z,58.00
2023-05-15T21:14:46.930Z,51.30
2023-05-15T21:17:21.387Z,31.50
2023-05-15T21:19:53.776Z,16.40
2023-05-15T21:22:25.371Z,18.40
2023-05-15T21:24:56.959Z,20.70
2023-05-15T21:27:28.709Z,32.30
2023-05-15T21:30:00.441Z,13.50
2023-05-15T21:32:32.093Z,25.80
2023-05-15T21:35:03.876Z,10.70
2023-05-15T21:37:35.930Z,8.20
2023-05-15T21:40:08.444Z,16.90
2023-05-15T21:42:40.953Z,16.80
2023-05-15T21:45:15.051Z,26.00
2023-05-15T21:47:49.265Z,27.00
2023-05-15T21:50:20.914Z,17.80
2023-05-15T21:52:55.346Z,45.20
2023-05-15T21:55:26.975Z,47.10
2023-05-15T21:58:01.054Z,54.80
2023-05-15T22:00:32.800Z,32.10
2023-05-15T22:03:04.478Z,17.00
2023-05-15T22:05:36.321Z,10.50
2023-05-15T22:08:10.339Z,7.80
2023-05-15T22:10:41.981Z,9.00
2023-05-15T22:13:13.665Z,8.80
2023-05-15T22:15:45.347Z,9.90
2023-05-15T22:18:16.901Z,9.40
2023-05-15T22:20:48.938Z,9.90
2023-05-15T22:23:20.646Z,9.70
2023-05-15T22:25:52.334Z,9.10
2023-05-15T22:28:23.981Z,8.90
2023-05-15T22:30:58.356Z,8.60
2023-05-15T22:33:30.206Z,8.80
2023-05-15T22:36:06.193Z,9.90
2023-05-15T22:38:37.972Z,10.10
2023-05-15T22:41:09.633Z,12.30
2023-05-15T22:43:41.755Z,13.00
2023-05-15T22:46:13.488Z,13.50
2023-05-15T22:48:45.102Z,13.50
2023-05-15T22:51:17.632Z,14.30
2023-05-15T22:53:49.213Z,13.60
2023-05-15T22:56:21.452Z,12.40
2023-05-15T22:58:53.399Z,12.20
2023-05-15T23:01:25.089Z,12.30
2023-05-15T23:03:56.872Z,12.20
2023-05-15T23:06:28.553Z,13.00
2023-05-15T23:09:03.941Z,12.20
2023-05-15T23:11:35.945Z,12.90
2023-05-15T23:14:08.505Z,12.70
2023-05-15T23:16:40.241Z,12.40
2023-05-15T23:19:12.012Z,14.10
2023-05-15T23:21:49.125Z,12.70
2023-05-15T23:24:20.878Z,13.60
2023-05-15T23:26:52.639Z,13.40
2023-05-15T23:29:24.289Z,13.00
2023-05-15T23:31:58.813Z,12.70
2023-05-15T23:34:30.778Z,13.40
2023-05-15T23:37:02.470Z,11.60
2023-05-15T23:39:34.196Z,12.40
2023-05-15T23:42:06.208Z,13.20
2023-05-15T23:44:40.401Z,11.40
2023-05-15T23:47:12.101Z,10.50
2023-05-15T23:49:44.155Z,9.90
2023-05-15T23:52:15.953Z,9.00
2023-05-15T23:54:47.641Z,7.90
2023-05-15T23:57:19.581Z,8.90
2023-05-15T23:59:54.096Z,8.20
